PWSweather.com
Personal Weather Stations
Station Observations
BREAKEY01
Lévis, Breakeyville, QC G0S 1E1

LévisBreakeyville, QC G0S 1E1

Lat: 46.681, Lon: -71.224

Elevation: 328

Station Type: Davis Vantage Pro2

http://www.meteobreakey.webou.net/topic/index.php

Latest ConditionsUpdated 7:07:05 AM EST Monday, Nov 24, 2014
Currently Today's Max Today's Min Today's Average
Temperature 37.8°F3.2°C 37.8°F3.2°C 36.1°F2.3°C 37.1°F2.8°C
Dew Point 36.7°F2.6°C 36.7°F2.6°C 34.9°F1.6°C 36.0°F2.2°C
Winds 2.9 mph ENE4.7 kmh ENE 6.0 mph E9.7 kmh E - 2.9 mph 4.7 kmh
Wind Gusts 4.9 mph7.9 kmh 8.1 mph13.0 kmh - -
Humidity 96% 96% 94% 96%
Pressure 29.77 in1008.1 mb 30.01 in1016.3 mb 29.77 in1008.1 mb -
Hour Temp Dew Point Humidity Winds Wind Gusts Pressure Precip Precip Rate Daily Precip Total
07:07 AM 37.8°F3.2°C 36.7°F2.6°C 96% 2.9 mph ENE4.7 kmh ENE 4.9 mph7.9 kmh 29.77 in1008.1 mb 0.00 in0.0 mm 0.00 in/hr0.0 mm/hr 0.00 in0.0 mm
07:02 AM 37.6°F3.1°C 36.5°F2.5°C 96% 2.9 mph ESE4.7 kmh ESE 2.0 mph3.2 kmh 29.77 in1008.1 mb 0.00 in0.0 mm 0.00 in/hr0.0 mm/hr 0.00 in0.0 mm
06:57 AM 37.4°F3.0°C 36.3°F2.4°C 96% 2.9 mph E4.7 kmh E 0.9 mph1.4 kmh 29.78 in1008.5 mb 0.00 in0.0 mm 0.00 in/hr0.0 mm/hr 0.00 in0.0 mm
06:52 AM 37.2°F2.9°C 36.1°F2.3°C 96% 4.0 mph E6.4 kmh E 4.0 mph6.4 kmh 29.78 in1008.5 mb 0.00 in0.0 mm 0.00 in/hr0.0 mm/hr 0.00 in0.0 mm
06:47 AM 37.2°F2.9°C 36.1°F2.3°C 96% 4.0 mph ESE6.4 kmh ESE -- 29.78 in1008.5 mb 0.00 in0.0 mm 0.00 in/hr0.0 mm/hr 0.00 in0.0 mm
06:42 AM 37.0°F2.8°C 36.0°F2.2°C 96% 2.9 mph E4.7 kmh E 4.0 mph6.4 kmh 29.79 in1008.8 mb 0.00 in0.0 mm 0.00 in/hr0.0 mm/hr 0.00 in0.0 mm
06:37 AM 37.0°F2.8°C 36.0°F2.2°C 96% 2.9 mph ESE4.7 kmh ESE -- 29.79 in1008.8 mb 0.00 in0.0 mm 0.00 in/hr0.0 mm/hr 0.00 in0.0 mm
06:32 AM 37.0°F2.8°C 36.0°F2.2°C 96% 4.0 mph ESE6.4 kmh ESE 0.9 mph1.4 kmh 29.79 in1008.8 mb 0.00 in0.0 mm 0.00 in/hr0.0 mm/hr 0.00 in0.0 mm
06:27 AM 37.0°F2.8°C 36.0°F2.2°C 96% 4.9 mph ESE7.9 kmh ESE 4.0 mph6.4 kmh 29.79 in1008.8 mb 0.00 in0.0 mm 0.00 in/hr0.0 mm/hr 0.00 in0.0 mm
06:22 AM 37.0°F2.8°C 36.0°F2.2°C 96% 4.9 mph E7.9 kmh E 2.0 mph3.2 kmh 29.80 in1009.1 mb 0.00 in0.0 mm 0.00 in/hr0.0 mm/hr 0.00 in0.0 mm
06:12 AM 36.9°F2.7°C 35.8°F2.1°C 96% 4.0 mph E6.4 kmh E 6.9 mph11.1 kmh 29.81 in1009.5 mb 0.00 in0.0 mm 0.00 in/hr0.0 mm/hr 0.00 in0.0 mm
06:07 AM 36.9°F2.7°C 35.8°F2.1°C 96% 4.0 mph E6.4 kmh E 4.9 mph7.9 kmh 29.81 in1009.5 mb 0.00 in0.0 mm 0.00 in/hr0.0 mm/hr 0.00 in0.0 mm
06:02 AM 36.9°F2.7°C 35.8°F2.1°C 96% 4.9 mph E7.9 kmh E 0.9 mph1.4 kmh 29.82 in1009.8 mb 0.00 in0.0 mm 0.00 in/hr0.0 mm/hr 0.00 in0.0 mm
05:57 AM 36.9°F2.7°C 35.8°F2.1°C 96% 4.0 mph ENE6.4 kmh ENE 4.9 mph7.9 kmh 29.82 in1009.8 mb 0.00 in0.0 mm 0.00 in/hr0.0 mm/hr 0.00 in0.0 mm
05:52 AM 36.9°F2.7°C 35.8°F2.1°C 96% 2.9 mph E4.7 kmh E 4.9 mph7.9 kmh 29.83 in1010.2 mb 0.00 in0.0 mm 0.00 in/hr0.0 mm/hr 0.00 in0.0 mm
05:47 AM 36.9°F2.7°C 35.8°F2.1°C 96% 4.0 mph ESE6.4 kmh ESE 4.0 mph6.4 kmh 29.83 in1010.2 mb 0.00 in0.0 mm 0.00 in/hr0.0 mm/hr 0.00 in0.0 mm
05:42 AM 37.0°F2.8°C 36.0°F2.2°C 96% 4.9 mph E7.9 kmh E 4.9 mph7.9 kmh 29.83 in1010.2 mb 0.00 in0.0 mm 0.00 in/hr0.0 mm/hr 0.00 in0.0 mm
05:37 AM 37.0°F2.8°C 36.0°F2.2°C 96% 4.9 mph E7.9 kmh E 2.9 mph4.7 kmh 29.83 in1010.2 mb 0.00 in0.0 mm 0.00 in/hr0.0 mm/hr 0.00 in0.0 mm
05:32 AM 37.0°F2.8°C 36.0°F2.2°C 96% 6.0 mph E9.7 kmh E 6.0 mph9.7 kmh 29.83 in1010.2 mb 0.00 in0.0 mm 0.00 in/hr0.0 mm/hr 0.00 in0.0 mm
05:27 AM 37.0°F2.8°C 36.0°F2.2°C 96% 6.0 mph E9.7 kmh E 6.9 mph11.1 kmh 29.83 in1010.2 mb 0.00 in0.0 mm 0.00 in/hr0.0 mm/hr 0.00 in0.0 mm
05:22 AM 37.0°F2.8°C 36.0°F2.2°C 96% 4.9 mph E7.9 kmh E 6.9 mph11.1 kmh 29.83 in1010.2 mb 0.00 in0.0 mm 0.00 in/hr0.0 mm/hr 0.00 in0.0 mm
05:17 AM 37.0°F2.8°C 36.0°F2.2°C 96% 4.0 mph E6.4 kmh E 2.9 mph4.7 kmh 29.84 in1010.5 mb 0.00 in0.0 mm 0.00 in/hr0.0 mm/hr 0.00 in0.0 mm
05:12 AM 37.0°F2.8°C 36.0°F2.2°C 96% 2.9 mph E4.7 kmh E 2.9 mph4.7 kmh 29.85 in1010.8 mb 0.00 in0.0 mm 0.00 in/hr0.0 mm/hr 0.00 in0.0 mm
05:07 AM 37.0°F2.8°C 36.0°F2.2°C 96% 2.9 mph ENE4.7 kmh ENE 6.0 mph9.7 kmh 29.86 in1011.2 mb 0.00 in0.0 mm 0.00 in/hr0.0 mm/hr 0.00 in0.0 mm
05:02 AM 37.0°F2.8°C 36.0°F2.2°C 96% 2.9 mph E4.7 kmh E 4.0 mph6.4 kmh 29.86 in1011.2 mb 0.00 in0.0 mm 0.00 in/hr0.0 mm/hr 0.00 in0.0 mm
04:57 AM 37.2°F2.9°C 36.1°F2.3°C 96% 2.9 mph E4.7 kmh E 2.9 mph4.7 kmh 29.86 in1011.2 mb 0.00 in0.0 mm 0.00 in/hr0.0 mm/hr 0.00 in0.0 mm
04:52 AM 37.2°F2.9°C 36.1°F2.3°C 96% 4.0 mph ESE6.4 kmh ESE 4.0 mph6.4 kmh 29.87 in1011.5 mb 0.00 in0.0 mm 0.00 in/hr0.0 mm/hr 0.00 in0.0 mm
04:47 AM 37.2°F2.9°C 36.1°F2.3°C 96% 2.9 mph ENE4.7 kmh ENE 4.9 mph7.9 kmh 29.86 in1011.2 mb 0.00 in0.0 mm 0.00 in/hr0.0 mm/hr 0.00 in0.0 mm
04:42 AM 37.4°F3.0°C 36.3°F2.4°C 96% 2.0 mph E3.2 kmh E 2.0 mph3.2 kmh 29.86 in1011.2 mb 0.00 in0.0 mm 0.00 in/hr0.0 mm/hr 0.00 in0.0 mm
04:37 AM 37.2°F2.9°C 36.1°F2.3°C 96% 2.0 mph E3.2 kmh E 4.0 mph6.4 kmh 29.87 in1011.5 mb 0.00 in0.0 mm 0.00 in/hr0.0 mm/hr 0.00 in0.0 mm
04:32 AM 37.4°F3.0°C 36.3°F2.4°C 96% 2.0 mph S3.2 kmh S 0.9 mph1.4 kmh 29.87 in1011.5 mb 0.00 in0.0 mm 0.00 in/hr0.0 mm/hr 0.00 in0.0 mm
04:27 AM 37.2°F2.9°C 36.0°F2.2°C 95% 0.9 mph E1.4 kmh E 2.9 mph4.7 kmh 29.87 in1011.5 mb 0.00 in0.0 mm 0.00 in/hr0.0 mm/hr 0.00 in0.0 mm
04:22 AM 37.4°F3.0°C 36.1°F2.3°C 95% 2.0 mph SSE3.2 kmh SSE 2.9 mph4.7 kmh 29.87 in1011.5 mb 0.00 in0.0 mm 0.00 in/hr0.0 mm/hr 0.00 in0.0 mm
04:17 AM 37.6°F3.1°C 36.5°F2.5°C 96% 2.9 mph ESE4.7 kmh ESE 0.9 mph1.4 kmh 29.88 in1011.9 mb 0.00 in0.0 mm 0.00 in/hr0.0 mm/hr 0.00 in0.0 mm
04:12 AM 37.6°F3.1°C 36.5°F2.5°C 96% 4.0 mph E6.4 kmh E 2.9 mph4.7 kmh 29.88 in1011.9 mb 0.00 in0.0 mm 0.00 in/hr0.0 mm/hr 0.00 in0.0 mm
04:07 AM 37.6°F3.1°C 36.5°F2.5°C 96% 4.0 mph ESE6.4 kmh ESE 2.0 mph3.2 kmh 29.88 in1011.9 mb 0.00 in0.0 mm 0.00 in/hr0.0 mm/hr 0.00 in0.0 mm
04:02 AM 37.6°F3.1°C 36.3°F2.4°C 95% 2.9 mph ENE4.7 kmh ENE 4.0 mph6.4 kmh 29.87 in1011.5 mb 0.00 in0.0 mm 0.00 in/hr0.0 mm/hr 0.00 in0.0 mm
03:57 AM 37.6°F3.1°C 36.3°F2.4°C 95% 2.9 mph ENE4.7 kmh ENE 4.0 mph6.4 kmh 29.88 in1011.9 mb 0.00 in0.0 mm 0.00 in/hr0.0 mm/hr 0.00 in0.0 mm
03:52 AM 37.6°F3.1°C 36.3°F2.4°C 95% 2.9 mph E4.7 kmh E 0.9 mph1.4 kmh 29.88 in1011.9 mb 0.00 in0.0 mm 0.00 in/hr0.0 mm/hr 0.00 in0.0 mm
03:47 AM 37.8°F3.2°C 36.7°F2.6°C 96% 2.9 mph E4.7 kmh E 6.0 mph9.7 kmh 29.89 in1012.2 mb 0.00 in0.0 mm 0.00 in/hr0.0 mm/hr 0.00 in0.0 mm
03:42 AM 37.8°F3.2°C 36.7°F2.6°C 96% 2.9 mph E4.7 kmh E 2.0 mph3.2 kmh 29.89 in1012.2 mb 0.00 in0.0 mm 0.00 in/hr0.0 mm/hr 0.00 in0.0 mm
03:37 AM 37.8°F3.2°C 36.7°F2.6°C 96% 2.9 mph ESE4.7 kmh ESE 0.9 mph1.4 kmh 29.90 in1012.5 mb 0.00 in0.0 mm 0.00 in/hr0.0 mm/hr 0.00 in0.0 mm
03:32 AM 37.8°F3.2°C 36.7°F2.6°C 96% 2.9 mph E4.7 kmh E 4.0 mph6.4 kmh 29.90 in1012.5 mb 0.00 in0.0 mm 0.00 in/hr0.0 mm/hr 0.00 in0.0 mm
03:27 AM 37.8°F3.2°C 36.7°F2.6°C 96% 2.9 mph E4.7 kmh E 2.0 mph3.2 kmh 29.90 in1012.5 mb 0.00 in0.0 mm 0.00 in/hr0.0 mm/hr 0.00 in0.0 mm
03:22 AM 37.8°F3.2°C 36.7°F2.6°C 96% 2.9 mph E4.7 kmh E 4.9 mph7.9 kmh 29.90 in1012.5 mb 0.00 in0.0 mm 0.00 in/hr0.0 mm/hr 0.00 in0.0 mm
03:17 AM 37.8°F3.2°C 36.5°F2.5°C 95% 2.9 mph E4.7 kmh E 6.0 mph9.7 kmh 29.91 in1012.9 mb 0.00 in0.0 mm 0.00 in/hr0.0 mm/hr 0.00 in0.0 mm
03:12 AM 37.6°F3.1°C 36.5°F2.5°C 96% 2.9 mph ESE4.7 kmh ESE 2.0 mph3.2 kmh 29.91 in1012.9 mb 0.00 in0.0 mm 0.00 in/hr0.0 mm/hr 0.00 in0.0 mm
03:07 AM 37.6°F3.1°C 36.3°F2.4°C 95% 4.0 mph E6.4 kmh E 2.9 mph4.7 kmh 29.92 in1013.2 mb 0.00 in0.0 mm 0.00 in/hr0.0 mm/hr 0.00 in0.0 mm
03:02 AM 37.6°F3.1°C 36.3°F2.4°C 95% 4.9 mph E7.9 kmh E 4.9 mph7.9 kmh 29.92 in1013.2 mb 0.00 in0.0 mm 0.00 in/hr0.0 mm/hr 0.00 in0.0 mm
02:57 AM 37.6°F3.1°C 36.5°F2.5°C 96% 4.9 mph E7.9 kmh E 8.1 mph13.0 kmh 29.93 in1013.5 mb 0.00 in0.0 mm 0.00 in/hr0.0 mm/hr 0.00 in0.0 mm
02:52 AM 37.6°F3.1°C 36.3°F2.4°C 95% 2.9 mph E4.7 kmh E 4.0 mph6.4 kmh 29.93 in1013.5 mb 0.00 in0.0 mm 0.00 in/hr0.0 mm/hr 0.00 in0.0 mm
02:47 AM 37.6°F3.1°C 36.3°F2.4°C 95% 2.0 mph E3.2 kmh E 2.9 mph4.7 kmh 29.95 in1014.2 mb 0.00 in0.0 mm 0.00 in/hr0.0 mm/hr 0.00 in0.0 mm
02:42 AM 37.6°F3.1°C 36.3°F2.4°C 95% 2.0 mph E3.2 kmh E 2.0 mph3.2 kmh 29.95 in1014.2 mb 0.00 in0.0 mm 0.00 in/hr0.0 mm/hr 0.00 in0.0 mm
02:37 AM 37.4°F3.0°C 36.1°F2.3°C 95% 0.9 mph E1.4 kmh E 2.0 mph3.2 kmh 29.96 in1014.6 mb 0.00 in0.0 mm 0.00 in/hr0.0 mm/hr 0.00 in0.0 mm
02:32 AM 37.4°F3.0°C 36.1°F2.3°C 95% 0.9 mph ENE1.4 kmh ENE -- 29.96 in1014.6 mb 0.00 in0.0 mm 0.00 in/hr0.0 mm/hr 0.00 in0.0 mm
02:27 AM 37.4°F3.0°C 36.1°F2.3°C 95% 0.9 mph ENE1.4 kmh ENE -- 29.96 in1014.6 mb 0.00 in0.0 mm 0.00 in/hr0.0 mm/hr 0.00 in0.0 mm
02:22 AM 37.2°F2.9°C 36.0°F2.2°C 95% 0.9 mph ENE1.4 kmh ENE 2.0 mph3.2 kmh 29.96 in1014.6 mb 0.00 in0.0 mm 0.00 in/hr0.0 mm/hr 0.00 in0.0 mm
02:17 AM 37.2°F2.9°C 36.1°F2.3°C 96% 0.9 mph E1.4 kmh E -- 29.96 in1014.6 mb 0.00 in0.0 mm 0.00 in/hr0.0 mm/hr 0.00 in0.0 mm
02:12 AM 37.2°F2.9°C 36.0°F2.2°C 95% 2.0 mph E3.2 kmh E 0.9 mph1.4 kmh 29.96 in1014.6 mb 0.00 in0.0 mm 0.00 in/hr0.0 mm/hr 0.00 in0.0 mm
02:07 AM 37.2°F2.9°C 36.1°F2.3°C 96% 4.0 mph E6.4 kmh E 2.0 mph3.2 kmh 29.96 in1014.6 mb 0.00 in0.0 mm 0.00 in/hr0.0 mm/hr 0.00 in0.0 mm
02:02 AM 37.2°F2.9°C 36.0°F2.2°C 95% 4.0 mph E6.4 kmh E 2.0 mph3.2 kmh 29.96 in1014.6 mb 0.00 in0.0 mm 0.00 in/hr0.0 mm/hr 0.00 in0.0 mm
01:57 AM 37.2°F2.9°C 36.1°F2.3°C 96% 4.0 mph NE6.4 kmh NE 2.9 mph4.7 kmh 29.96 in1014.6 mb 0.00 in0.0 mm 0.00 in/hr0.0 mm/hr 0.00 in0.0 mm
01:52 AM 37.2°F2.9°C 36.1°F2.3°C 96% 2.9 mph E4.7 kmh E 2.9 mph4.7 kmh 29.96 in1014.6 mb 0.00 in0.0 mm 0.00 in/hr0.0 mm/hr 0.00 in0.0 mm
01:47 AM 37.2°F2.9°C 36.1°F2.3°C 96% 2.0 mph E3.2 kmh E 4.0 mph6.4 kmh 29.97 in1014.9 mb 0.00 in0.0 mm 0.00 in/hr0.0 mm/hr 0.00 in0.0 mm
01:42 AM 37.2°F2.9°C 36.1°F2.3°C 96% 2.9 mph E4.7 kmh E -- 29.97 in1014.9 mb 0.00 in0.0 mm 0.00 in/hr0.0 mm/hr 0.00 in0.0 mm
01:37 AM 37.2°F2.9°C 36.1°F2.3°C 96% 2.9 mph E4.7 kmh E 2.9 mph4.7 kmh 29.97 in1014.9 mb 0.00 in0.0 mm 0.00 in/hr0.0 mm/hr 0.00 in0.0 mm
01:32 AM 37.2°F2.9°C 36.1°F2.3°C 96% 2.9 mph E4.7 kmh E 2.0 mph3.2 kmh 29.97 in1014.9 mb 0.00 in0.0 mm 0.00 in/hr0.0 mm/hr 0.00 in0.0 mm
01:27 AM 37.0°F2.8°C 36.0°F2.2°C 96% 2.9 mph E4.7 kmh E 2.0 mph3.2 kmh 29.98 in1015.2 mb 0.00 in0.0 mm 0.00 in/hr0.0 mm/hr 0.00 in0.0 mm
01:22 AM 36.9°F2.7°C 35.8°F2.1°C 96% 2.0 mph E3.2 kmh E 2.9 mph4.7 kmh 29.98 in1015.2 mb 0.00 in0.0 mm 0.00 in/hr0.0 mm/hr 0.00 in0.0 mm
01:17 AM 36.9°F2.7°C 35.6°F2.0°C 95% 0.9 mph E1.4 kmh E 2.0 mph3.2 kmh 29.98 in1015.2 mb 0.00 in0.0 mm 0.00 in/hr0.0 mm/hr 0.00 in0.0 mm
01:12 AM 36.9°F2.7°C 35.8°F2.1°C 96% 2.0 mph E3.2 kmh E -- 29.99 in1015.6 mb 0.00 in0.0 mm 0.00 in/hr0.0 mm/hr 0.00 in0.0 mm
01:07 AM 36.7°F2.6°C 35.6°F2.0°C 96% 2.0 mph E3.2 kmh E 2.0 mph3.2 kmh 29.99 in1015.6 mb 0.00 in0.0 mm 0.00 in/hr0.0 mm/hr 0.00 in0.0 mm
01:02 AM 36.5°F2.5°C 35.4°F1.9°C 96% 2.0 mph E3.2 kmh E 2.9 mph4.7 kmh 29.99 in1015.6 mb 0.00 in0.0 mm 0.00 in/hr0.0 mm/hr 0.00 in0.0 mm
12:57 AM 36.3°F2.4°C 35.1°F1.7°C 95% 2.0 mph ENE3.2 kmh ENE 0.9 mph1.4 kmh 29.99 in1015.6 mb 0.00 in0.0 mm 0.00 in/hr0.0 mm/hr 0.00 in0.0 mm
12:52 AM 36.3°F2.4°C 35.1°F1.7°C 95% 2.0 mph ENE3.2 kmh ENE 2.0 mph3.2 kmh 29.99 in1015.6 mb 0.00 in0.0 mm 0.00 in/hr0.0 mm/hr 0.00 in0.0 mm
12:47 AM 36.1°F2.3°C 34.9°F1.6°C 95% 2.0 mph E3.2 kmh E 0.9 mph1.4 kmh 29.99 in1015.6 mb 0.00 in0.0 mm 0.00 in/hr0.0 mm/hr 0.00 in0.0 mm
12:42 AM 36.1°F2.3°C 34.9°F1.6°C 95% 2.0 mph E3.2 kmh E 0.9 mph1.4 kmh 29.99 in1015.6 mb 0.00 in0.0 mm 0.00 in/hr0.0 mm/hr 0.00 in0.0 mm
12:37 AM 36.1°F2.3°C 34.9°F1.6°C 95% 2.0 mph NE3.2 kmh NE 2.0 mph3.2 kmh 29.99 in1015.6 mb 0.00 in0.0 mm 0.00 in/hr0.0 mm/hr 0.00 in0.0 mm
12:32 AM 36.1°F2.3°C 34.9°F1.6°C 95% 2.0 mph ENE3.2 kmh ENE 2.0 mph3.2 kmh 29.99 in1015.6 mb 0.00 in0.0 mm 0.00 in/hr0.0 mm/hr 0.00 in0.0 mm
12:27 AM 36.1°F2.3°C 34.9°F1.6°C 95% 2.0 mph E3.2 kmh E 2.0 mph3.2 kmh 29.99 in1015.6 mb 0.00 in0.0 mm 0.00 in/hr0.0 mm/hr 0.00 in0.0 mm
12:22 AM 36.1°F2.3°C 34.9°F1.6°C 95% 2.0 mph ENE3.2 kmh ENE 2.0 mph3.2 kmh 30.00 in1015.9 mb 0.00 in0.0 mm 0.00 in/hr0.0 mm/hr 0.00 in0.0 mm
12:17 AM 36.1°F2.3°C 34.9°F1.6°C 95% 0.9 mph NNE1.4 kmh NNE 2.0 mph3.2 kmh 30.00 in1015.9 mb 0.00 in0.0 mm 0.00 in/hr0.0 mm/hr 0.00 in0.0 mm
12:12 AM 36.1°F2.3°C 34.9°F1.6°C 95% Calm Calm -- 30.01 in1016.3 mb 0.00 in0.0 mm 0.00 in/hr0.0 mm/hr 0.00 in0.0 mm
12:07 AM 36.3°F2.4°C 35.1°F1.7°C 95% 0.9 mph NNE1.4 kmh NNE -- 30.01 in1016.3 mb 0.00 in0.0 mm 0.00 in/hr0.0 mm/hr 0.00 in0.0 mm
12:02 AM 36.5°F2.5°C 34.9°F1.6°C 94% 0.9 mph NNE1.4 kmh NNE 2.0 mph3.2 kmh 30.00 in1015.9 mb 0.00 in0.0 mm 0.00 in/hr0.0 mm/hr 0.00 in0.0 mm